San Clemente, CA (92672)

10:24 AM PDT on September 30, 2014 (GMT -0700)
Shorecliffs | Change Station
CLOSE
Current Station
Personal Weather Station
Location: San Clemente, CA
Elevation: 174 ft
Nearby Weather Stations

Elev 174 ft 33.44 °N, 117.64 °W | Updated 23 seconds ago

Clear
Clear
73.0 °F
Feels Like 75 °F
N
2.0
Wind Variable Wind from NW
Gusts 0.0 mph

Today
High -- | Low -- °F
--% Chance of Precip.
Yesterday
High -- | Low -- °F
Precip. -- in
6:44 AM 6:36 PM
Waxing Crescent, 38% visible
Pressure 29.86 in
Visibility 7.0 miles
Clouds Clear
Heat Index 75 °F
Dew Point 62 °F
Humidity 68%
Rainfall 0.00 in
Snow Depth 0 in , 0 in , 1 in
UV 4 out of 12
Pollen 5.10 out of 12
Ozone Good
Flu Activity Not available.
METAR KNFG 301654Z 00000KT 7SM CLR 24/12 A2986 RMK AO2 SLP111 T02390117 $

More Conditions Fewer Conditions

Pressure 29.86 in
Visibility 7.0 miles
Clouds Clear
Heat Index 75 °F
Dew Point 62 °F
Humidity 68%
Rainfall 0.00 in
Snow Depth 0 in , 0 in , 1 in
UV 4 out of 12
Pollen 5.10 out of 12
Ozone Good
Flu Activity Not available.
METAR KNFG 301654Z 00000KT 7SM CLR 24/12 A2986 RMK AO2 SLP111 T02390117 $

More Conditions Fewer Conditions

10-Day Weather Forecast

Almanac

Astronomy

Sep. 30, 2014 Rise Set
Actual Time 6:44 AM PDT 6:36 PM PDT
Civil Twilight 6:19 AM PDT 7:00 PM PDT
Nautical Twilight 5:50 AM PDT 7:29 PM PDT
Astronomical Twilight 5:21 AM PDT 7:58 PM PDT
Moon 12:43 PM PDT 11:23 PM PDT
Length of Visible Light 12h 41m
Length of Day
11h 51m
Tomorrow will be 2m 3s shorter.
Waxing Crescent, 38% of the Moon is Illuminated
Today
Waxing Crescent
Oct 1
First Quarter
Oct 8
Full
Oct 15
Last Quarter
Oct 23
New

Today's Extremes

State Highs State Lows

Community

WunderPhotos

Upload Photos

1,757,688 photos uploaded!

Nearby

Air Quality

  Air Quality AQ Index Pollutant
Yesterday Good
OZONE
Current Good
OZONE
Tuesday Good
PM10
Tuesday Good
OZONE
Tuesday Good
CO
Tuesday Good
NO2

Snow Depth

Station Depth Elevation
Poison Flat 0 in 7900 ft
Adin Mountain 0 in 6200 ft
Spratt Creek 1 in 6200 ft
Sonora Pass 0 in 8800 ft
Monitor Pass 1 in 8350 ft

Earthquake Activity

City Distance Mag. Time & Date
No recent earthquake activity has been reported nearby.
Minimum magnitude displayed is 2.5.

Coastal Water Temperatures

Place Temperature
Santa Monica Pier 66.9 °F
Los Angeles, CA 66.9 °F
La Jolla, CA 68.0 °F

Nearby Weather Stations